createdAt,value
2015-08-27T07:22:14.220Z,100242
2015-08-27T07:22:25.235Z,100227
2015-08-27T07:22:35.735Z,100244
2015-08-27T07:22:46.204Z,100233
2015-08-27T07:22:56.706Z,100230
2015-08-27T07:23:07.175Z,100239
2015-08-27T07:23:17.722Z,100233
2015-08-27T07:23:28.175Z,100239
2015-08-27T07:23:39.019Z,100236
2015-08-27T07:23:49.487Z,100221
2015-08-27T07:24:00.004Z,100227
2015-08-27T07:24:10.457Z,100230
2015-08-27T07:24:20.895Z,100236
2015-08-27T07:24:31.395Z,100233
2015-08-27T07:24:41.895Z,100233
2015-08-27T07:24:52.537Z,100239
2015-08-27T07:25:02.990Z,100239
2015-08-27T07:25:13.443Z,100233
2015-08-27T07:25:23.928Z,100230
2015-08-27T07:25:35.053Z,100236
2015-08-27T07:25:45.990Z,100233
2015-08-27T07:25:56.462Z,100227
2015-08-27T07:26:06.931Z,100230
2015-08-27T07:26:17.415Z,100233
2015-08-27T07:26:27.915Z,100233
2015-08-27T07:26:38.431Z,100233
2015-08-27T07:26:48.915Z,100230
2015-08-27T07:26:59.447Z,100221
2015-08-27T07:27:09.869Z,100230
2015-08-27T07:27:20.447Z,100227
2015-08-27T07:27:30.979Z,100218
2015-08-27T07:27:41.447Z,100233
2015-08-27T07:27:51.903Z,100224
2015-08-27T07:28:02.371Z,100230
2015-08-27T07:28:12.840Z,100230
2015-08-27T07:28:23.324Z,100227
2015-08-27T07:28:34.153Z,100224
2015-08-27T07:28:44.637Z,100224
2015-08-27T07:28:55.108Z,100233
2015-08-27T07:29:06.233Z,100221
2015-08-27T07:29:16.670Z,100224
2015-08-27T07:29:27.155Z,100221
2015-08-27T07:29:37.608Z,100227
2015-08-27T07:29:48.139Z,100218
2015-08-27T07:29:58.688Z,100230
2015-08-27T07:30:09.125Z,100230
2015-08-27T07:30:19.657Z,100224
2015-08-27T07:30:30.125Z,100230
2015-08-27T07:30:40.594Z,100224
2015-08-27T07:30:51.047Z,100242
2015-08-27T07:31:01.565Z,100239
2015-08-27T07:31:12.080Z,100236
2015-08-27T07:31:22.596Z,100242
2015-08-27T07:31:33.034Z,100245
2015-08-27T07:31:43.565Z,100236
2015-08-27T07:31:54.020Z,100239
2015-08-27T07:32:04.489Z,100236
2015-08-27T07:32:15.082Z,100245
2015-08-27T07:32:25.629Z,100245
2015-08-27T07:32:36.098Z,100236
2015-08-27T07:32:46.661Z,100245
2015-08-27T07:32:57.069Z,100242
2015-08-27T07:33:07.538Z,100239
2015-08-27T07:33:18.022Z,100236
2015-08-27T07:33:28.491Z,100247
2015-08-27T07:33:39.084Z,100230
2015-08-27T07:33:49.569Z,100245
2015-08-27T07:34:00.056Z,100239
2015-08-27T07:34:10.431Z,100242
2015-08-27T07:34:20.916Z,100245
2015-08-27T07:34:31.400Z,100242
2015-08-27T07:34:41.869Z,100236
2015-08-27T07:34:52.494Z,100250
2015-08-27T07:35:03.635Z,100242
2015-08-27T07:35:14.135Z,100256
2015-08-27T07:35:24.792Z,100242
2015-08-27T07:35:35.276Z,100250
2015-08-27T07:35:45.807Z,100245
2015-08-27T07:35:56.278Z,100253
2015-08-27T07:36:06.731Z,100245
2015-08-27T07:36:17.215Z,100253
2015-08-27T07:36:27.762Z,100245
2015-08-27T07:36:38.278Z,100245
2015-08-27T07:36:48.669Z,100245
2015-08-27T07:36:59.608Z,100245
2015-08-27T07:37:10.046Z,100239
2015-08-27T07:37:20.514Z,100245
2015-08-27T07:37:30.983Z,100245
2015-08-27T07:37:41.452Z,100250
2015-08-27T07:37:51.905Z,100245
2015-08-27T07:38:02.391Z,100247
2015-08-27T07:38:12.969Z,100239
2015-08-27T07:38:23.485Z,100245
2015-08-27T07:38:33.938Z,100245
2015-08-27T07:38:44.407Z,100242
2015-08-27T07:38:54.891Z,100253
2015-08-27T07:39:05.440Z,100242
2015-08-27T07:39:15.925Z,100245
2015-08-27T07:39:26.440Z,100245
2015-08-27T07:39:37.065Z,100250
2015-08-27T07:39:48.050Z,100256
2015-08-27T07:39:59.270Z,100253
2015-08-27T07:40:09.755Z,100250
2015-08-27T07:40:20.223Z,100253
2015-08-27T07:40:30.677Z,100256
2015-08-27T07:40:41.145Z,100259
2015-08-27T07:40:51.630Z,100256
2015-08-27T07:41:02.116Z,100253
2015-08-27T07:41:12.554Z,100262
2015-08-27T07:41:23.022Z,100250
2015-08-27T07:41:33.522Z,100259
2015-08-27T07:41:43.960Z,100262
2015-08-27T07:41:54.429Z,100259
2015-08-27T07:42:04.883Z,100259
2015-08-27T07:42:15.367Z,100250
2015-08-27T07:42:25.820Z,100253
2015-08-27T07:42:36.289Z,100265
2015-08-27T07:42:46.742Z,100253
2015-08-27T07:42:57.273Z,100253
2015-08-27T07:43:07.807Z,100253
2015-08-27T07:43:18.275Z,100253
2015-08-27T07:43:28.791Z,100265
2015-08-27T07:43:39.322Z,100256
2015-08-27T07:43:49.900Z,100259
2015-08-27T07:44:00.372Z,100253
2015-08-27T07:44:10.856Z,100256
2015-08-27T07:44:21.372Z,100256
2015-08-27T07:44:31.841Z,100265
2015-08-27T07:44:42.294Z,100259
2015-08-27T07:44:52.763Z,100262
2015-08-27T07:45:03.217Z,100259
2015-08-27T07:45:13.826Z,100259
2015-08-27T07:45:24.404Z,100268
2015-08-27T07:45:34.904Z,100274
2015-08-27T07:45:46.248Z,100259
2015-08-27T07:45:56.717Z,100265
2015-08-27T07:46:07.188Z,100268
2015-08-27T07:46:17.688Z,100265
2015-08-27T07:46:28.172Z,100259
2015-08-27T07:46:38.672Z,100265
2015-08-27T07:46:49.125Z,100259
2015-08-27T07:46:59.690Z,100259
2015-08-27T07:47:10.268Z,100259
2015-08-27T07:47:20.768Z,100262
2015-08-27T07:47:31.236Z,100268
2015-08-27T07:47:41.721Z,100256
2015-08-27T07:47:52.158Z,100265
2015-08-27T07:48:02.676Z,100268
2015-08-27T07:48:13.113Z,100259
2015-08-27T07:48:23.629Z,100268
2015-08-27T07:48:34.160Z,100265
2015-08-27T07:48:44.754Z,100271
2015-08-27T07:48:55.223Z,100265
2015-08-27T07:49:05.695Z,100265
2015-08-27T07:49:16.163Z,100265
2015-08-27T07:49:26.616Z,100265
2015-08-27T07:49:37.179Z,100265
2015-08-27T07:49:47.585Z,100262
2015-08-27T07:49:58.054Z,100268
2015-08-27T07:50:08.555Z,100262
2015-08-27T07:50:19.039Z,100268
2015-08-27T07:50:29.508Z,100265
2015-08-27T07:50:39.977Z,100268
2015-08-27T07:50:50.446Z,100268
2015-08-27T07:51:00.883Z,100271
2015-08-27T07:51:11.369Z,100268
2015-08-27T07:51:21.823Z,100265
2015-08-27T07:51:32.291Z,100271
2015-08-27T07:51:43.135Z,100268
2015-08-27T07:51:53.635Z,100274
2015-08-27T07:52:04.200Z,100276
2015-08-27T07:52:14.746Z,100271
2015-08-27T07:52:25.231Z,100265
2015-08-27T07:52:35.715Z,100271
2015-08-27T07:52:46.153Z,100259
2015-08-27T07:52:56.637Z,100265
2015-08-27T07:53:07.155Z,100274
2015-08-27T07:53:17.655Z,100265
2015-08-27T07:53:28.139Z,100268
2015-08-27T07:53:38.717Z,100268
2015-08-27T07:53:49.186Z,100274
2015-08-27T07:53:59.639Z,100271
2015-08-27T07:54:10.110Z,100268
2015-08-27T07:54:20.719Z,100262
2015-08-27T07:54:31.297Z,100268
2015-08-27T07:54:41.797Z,100274
2015-08-27T07:54:52.297Z,100268
2015-08-27T07:55:02.768Z,100271
2015-08-27T07:55:13.221Z,100274
2015-08-27T07:55:23.690Z,100276
2015-08-27T07:55:34.143Z,100268
2015-08-27T07:55:44.596Z,100271
2015-08-27T07:55:55.065Z,100271
2015-08-27T07:56:05.566Z,100268
2015-08-27T07:56:16.066Z,100271
2015-08-27T07:56:26.519Z,100259
2015-08-27T07:56:37.128Z,100265
2015-08-27T07:56:47.660Z,100268
2015-08-27T07:56:58.175Z,100271
2015-08-27T07:57:08.678Z,100271
2015-08-27T07:57:19.163Z,100262
2015-08-27T07:57:29.647Z,100274
2015-08-27T07:57:40.085Z,100271
2015-08-27T07:57:50.538Z,100274
2015-08-27T07:58:01.147Z,100274
2015-08-27T07:58:11.632Z,100271
2015-08-27T07:58:22.117Z,100274
2015-08-27T07:58:32.601Z,100276
2015-08-27T07:58:43.086Z,100276
2015-08-27T07:58:53.554Z,100271
2015-08-27T07:59:04.039Z,100276
2015-08-27T07:59:14.526Z,100271
2015-08-27T07:59:25.010Z,100276
2015-08-27T07:59:35.464Z,100276
2015-08-27T07:59:45.932Z,100271
2015-08-27T07:59:56.370Z,100276
2015-08-27T08:00:07.168Z,100271
2015-08-27T08:00:17.636Z,100279
2015-08-27T08:00:28.152Z,100271
2015-08-27T08:00:38.574Z,100277
2015-08-27T08:00:49.074Z,100279
2015-08-27T08:01:00.215Z,100277
2015-08-27T08:01:10.671Z,100271
2015-08-27T08:01:21.186Z,100271
2015-08-27T08:01:31.655Z,100279
2015-08-27T08:01:42.124Z,100274
2015-08-27T08:01:52.811Z,100276
2015-08-27T08:02:03.296Z,100268
2015-08-27T08:02:13.720Z,100271
2015-08-27T08:02:24.220Z,100271
2015-08-27T08:02:34.688Z,100277
2015-08-27T08:02:45.157Z,100277
2015-08-27T08:02:55.610Z,100271
2015-08-27T08:03:06.079Z,100271
2015-08-27T08:03:16.564Z,100265
2015-08-27T08:03:27.033Z,100274
2015-08-27T08:03:37.471Z,100271
2015-08-27T08:03:47.955Z,100271
2015-08-27T08:03:58.439Z,100268
2015-08-27T08:04:09.066Z,100271
2015-08-27T08:04:19.551Z,100279
2015-08-27T08:04:30.082Z,100279
2015-08-27T08:04:41.191Z,100277
2015-08-27T08:04:51.660Z,100274
2015-08-27T08:05:02.129Z,100279
2015-08-27T08:05:12.615Z,100274
2015-08-27T08:05:23.084Z,100285
2015-08-27T08:05:33.568Z,100279
2015-08-27T08:05:44.021Z,100277
2015-08-27T08:05:54.475Z,100274
2015-08-27T08:06:04.990Z,100274
2015-08-27T08:06:15.477Z,100285
2015-08-27T08:06:25.977Z,100277
2015-08-27T08:06:36.445Z,100274
2015-08-27T08:06:46.914Z,100285
2015-08-27T08:06:57.383Z,100279
2015-08-27T08:07:07.898Z,100277
2015-08-27T08:07:18.400Z,100285
2015-08-27T08:07:28.838Z,100277
2015-08-27T08:07:39.432Z,100282
2015-08-27T08:07:49.947Z,100282
2015-08-27T08:08:00.432Z,100282
2015-08-27T08:08:10.918Z,100285
2015-08-27T08:08:21.371Z,100279
2015-08-27T08:08:31.887Z,100271
2015-08-27T08:08:42.387Z,100279
2015-08-27T08:08:52.871Z,100277
2015-08-27T08:09:03.324Z,100285
2015-08-27T08:09:13.842Z,100271
2015-08-27T08:09:24.295Z,100277
2015-08-27T08:09:34.748Z,100279
2015-08-27T08:09:45.983Z,100274
2015-08-27T08:09:56.483Z,100277
2015-08-27T08:10:06.951Z,100277
2015-08-27T08:10:17.422Z,100279
2015-08-27T08:10:27.891Z,100274
2015-08-27T08:10:38.453Z,100279
2015-08-27T08:10:48.922Z,100277
2015-08-27T08:10:59.344Z,100271
2015-08-27T08:11:09.797Z,100279
2015-08-27T08:11:20.283Z,100282
2015-08-27T08:11:30.737Z,100279
2015-08-27T08:11:41.299Z,100282
2015-08-27T08:11:51.783Z,100285
2015-08-27T08:12:02.299Z,100279
2015-08-27T08:12:12.784Z,100282
2015-08-27T08:12:23.284Z,100282
2015-08-27T08:12:34.409Z,100282
2015-08-27T08:12:44.909Z,100282
2015-08-27T08:12:55.331Z,100285
2015-08-27T08:13:05.800Z,100285
2015-08-27T08:13:16.240Z,100277
2015-08-27T08:13:26.771Z,100282
2015-08-27T08:13:37.240Z,100279
2015-08-27T08:13:47.708Z,100285
2015-08-27T08:13:58.193Z,100290
2015-08-27T08:14:08.646Z,100279
2015-08-27T08:14:19.243Z,100279
2015-08-27T08:14:29.743Z,100277
2015-08-27T08:14:40.180Z,100277
2015-08-27T08:14:50.664Z,100279
2015-08-27T08:15:01.118Z,100285
2015-08-27T08:15:11.571Z,100277
2015-08-27T08:15:22.056Z,100290
2015-08-27T08:15:32.525Z,100282
2015-08-27T08:15:43.072Z,100288
2015-08-27T08:15:53.556Z,100279
2015-08-27T08:16:04.025Z,100288
2015-08-27T08:16:14.527Z,100282
2015-08-27T08:16:25.089Z,100288
2015-08-27T08:16:35.714Z,100293
2015-08-27T08:16:46.246Z,100288
2015-08-27T08:16:56.683Z,100293
2015-08-27T08:17:07.855Z,100296
2015-08-27T08:17:18.310Z,100288
2015-08-27T08:17:28.935Z,100299
2015-08-27T08:17:39.435Z,100290
2015-08-27T08:17:49.888Z,100296
2015-08-27T08:18:00.373Z,100288
2015-08-27T08:18:10.857Z,100290
2015-08-27T08:18:21.343Z,100293
2015-08-27T08:18:31.765Z,100293
2015-08-27T08:18:42.218Z,100296
2015-08-27T08:18:52.671Z,100288
2015-08-27T08:19:03.156Z,100299
2015-08-27T08:19:13.658Z,100290
2015-08-27T08:19:24.142Z,100296
2015-08-27T08:19:34.548Z,100296
2015-08-27T08:19:45.033Z,100293
2015-08-27T08:19:55.502Z,100296
2015-08-27T08:20:05.986Z,100293
2015-08-27T08:20:16.441Z,100296
2015-08-27T08:20:26.972Z,100299
2015-08-27T08:20:37.566Z,100296
2015-08-27T08:20:48.082Z,100293
2015-08-27T08:20:58.597Z,100293
2015-08-27T08:21:09.050Z,100293
2015-08-27T08:21:20.193Z,100288
2015-08-27T08:21:30.693Z,100293
2015-08-27T08:21:41.662Z,100296
2015-08-27T08:21:52.131Z,100293
2015-08-27T08:22:02.599Z,100293
2015-08-27T08:22:13.068Z,100288
2015-08-27T08:22:23.539Z,100293
2015-08-27T08:22:34.070Z,100290
2015-08-27T08:22:44.539Z,100302
2015-08-27T08:22:54.992Z,100296
2015-08-27T08:23:05.508Z,100296
2015-08-27T08:23:15.963Z,100290
2015-08-27T08:23:26.431Z,100302
2015-08-27T08:23:36.900Z,100299
2015-08-27T08:23:47.869Z,100299
2015-08-27T08:23:58.431Z,100296
2015-08-27T08:24:09.025Z,100293
2015-08-27T08:24:19.433Z,100299
2015-08-27T08:24:29.887Z,100290
2015-08-27T08:24:40.433Z,100296
2015-08-27T08:24:50.933Z,100288
2015-08-27T08:25:01.418Z,100296
2015-08-27T08:25:12.012Z,100293
2015-08-27T08:25:22.451Z,100299
2015-08-27T08:25:32.951Z,100305
2015-08-27T08:25:43.498Z,100299
2015-08-27T08:25:53.935Z,100296
2015-08-27T08:26:04.389Z,100302
2015-08-27T08:26:14.935Z,100299
2015-08-27T08:26:25.406Z,100305
2015-08-27T08:26:35.922Z,100296
2015-08-27T08:26:46.391Z,100293
2015-08-27T08:26:56.844Z,100305
2015-08-27T08:27:07.328Z,100299
2015-08-27T08:27:17.799Z,100290
2015-08-27T08:27:28.268Z,100299
2015-08-27T08:27:38.846Z,100299
2015-08-27T08:27:49.377Z,100299
2015-08-27T08:27:59.814Z,100305
2015-08-27T08:28:10.314Z,100302
2015-08-27T08:28:20.770Z,100296
2015-08-27T08:28:31.238Z,100302
2015-08-27T08:28:41.832Z,100305
2015-08-27T08:28:52.332Z,100308
2015-08-27T08:29:02.832Z,100316
2015-08-27T08:29:13.316Z,100310
2015-08-27T08:29:23.802Z,100299
2015-08-27T08:29:34.286Z,100308
2015-08-27T08:29:45.349Z,100302
2015-08-27T08:29:55.802Z,100308
2015-08-27T08:30:06.427Z,100313
2015-08-27T08:30:16.882Z,100310
2015-08-27T08:30:27.335Z,100305
2015-08-27T08:30:37.788Z,100313
2015-08-27T08:30:48.241Z,100308
2015-08-27T08:30:58.726Z,100305
2015-08-27T08:31:09.179Z,100313
2015-08-27T08:31:19.759Z,100310
2015-08-27T08:31:30.321Z,100302
2015-08-27T08:31:41.384Z,100310
2015-08-27T08:31:51.821Z,100305
2015-08-27T08:32:02.321Z,100308
2015-08-27T08:32:12.775Z,100313
2015-08-27T08:32:23.230Z,100308
2015-08-27T08:32:33.714Z,100308
2015-08-27T08:32:44.198Z,100316
2015-08-27T08:32:54.667Z,100313
2015-08-27T08:33:05.214Z,100316
2015-08-27T08:33:15.698Z,100313
2015-08-27T08:33:26.200Z,100316
2015-08-27T08:33:36.747Z,100313
2015-08-27T08:33:47.341Z,100322
2015-08-27T08:33:59.138Z,100305
2015-08-27T08:34:09.591Z,100310
2015-08-27T08:34:20.046Z,100319
2015-08-27T08:34:30.515Z,100313
2015-08-27T08:34:40.968Z,100316
2015-08-27T08:34:51.437Z,100310
2015-08-27T08:35:01.890Z,100313
2015-08-27T08:35:12.327Z,100319
2015-08-27T08:35:22.767Z,100319
2015-08-27T08:35:33.251Z,100313
2015-08-27T08:35:43.736Z,100325
2015-08-27T08:35:54.189Z,100319
2015-08-27T08:36:04.642Z,100319
2015-08-27T08:36:15.095Z,100319
2015-08-27T08:36:25.566Z,100316
2015-08-27T08:36:36.050Z,100319
2015-08-27T08:36:46.503Z,100310
2015-08-27T08:36:56.956Z,100316
2015-08-27T08:37:07.425Z,100316
2015-08-27T08:37:17.925Z,100319
2015-08-27T08:37:28.349Z,100322
2015-08-27T08:37:38.990Z,100316
2015-08-27T08:37:49.537Z,100322
2015-08-27T08:38:00.005Z,100325
2015-08-27T08:38:10.443Z,100331
2015-08-27T08:38:20.896Z,100313
2015-08-27T08:38:31.289Z,100325
2015-08-27T08:38:41.757Z,100319
2015-08-27T08:38:52.539Z,100322
2015-08-27T08:39:03.007Z,100316
2015-08-27T08:39:13.460Z,100319
2015-08-27T08:39:23.916Z,100334
2015-08-27T08:39:34.275Z,100313
2015-08-27T08:39:44.759Z,100325
2015-08-27T08:39:55.197Z,100319
2015-08-27T08:40:05.666Z,100334
2015-08-27T08:40:16.119Z,100334
2015-08-27T08:40:26.589Z,100325
2015-08-27T08:40:37.089Z,100316
2015-08-27T08:40:47.527Z,100322
2015-08-27T08:40:57.996Z,100325
2015-08-27T08:41:08.464Z,100313
2015-08-27T08:41:18.918Z,100319
2015-08-27T08:41:29.387Z,100322
2015-08-27T08:41:39.872Z,100322
2015-08-27T08:41:50.372Z,100322
2015-08-27T08:42:00.825Z,100331
2015-08-27T08:42:11.965Z,100325
2015-08-27T08:42:22.483Z,100322
2015-08-27T08:42:32.936Z,100313
2015-08-27T08:42:43.405Z,100316
2015-08-27T08:42:53.889Z,100325
2015-08-27T08:43:04.389Z,100334
2015-08-27T08:43:14.858Z,100334
2015-08-27T08:43:25.313Z,100331
2015-08-27T08:43:35.798Z,100336
2015-08-27T08:43:46.266Z,100325
2015-08-27T08:43:56.688Z,100334
2015-08-27T08:44:07.157Z,100325
2015-08-27T08:44:17.594Z,100331
2015-08-27T08:44:28.096Z,100334
2015-08-27T08:44:38.581Z,100325
2015-08-27T08:44:49.050Z,100313
2015-08-27T08:44:59.487Z,100331
2015-08-27T08:45:09.971Z,100325
2015-08-27T08:45:20.456Z,100331
2015-08-27T08:45:30.927Z,100336
2015-08-27T08:45:41.817Z,100331
2015-08-27T08:45:52.302Z,100339
2015-08-27T08:46:02.802Z,100325
2015-08-27T08:46:13.395Z,100331
2015-08-27T08:46:23.895Z,100339
2015-08-27T08:46:34.382Z,100341
2015-08-27T08:46:44.835Z,100334
2015-08-27T08:46:55.350Z,100334
2015-08-27T08:47:05.788Z,100325
2015-08-27T08:47:16.929Z,100341
2015-08-27T08:47:27.415Z,100336
2015-08-27T08:47:37.868Z,100334
2015-08-27T08:47:48.321Z,100334
2015-08-27T08:47:58.790Z,100336
2015-08-27T08:48:09.227Z,100341
2015-08-27T08:48:19.712Z,100344
2015-08-27T08:48:30.245Z,100336
2015-08-27T08:48:40.745Z,100347
2015-08-27T08:48:51.136Z,100334
2015-08-27T08:49:01.589Z,100344
2015-08-27T08:49:12.026Z,100334
2015-08-27T08:49:22.464Z,100344
2015-08-27T08:49:32.872Z,100336
2015-08-27T08:49:43.466Z,100341
2015-08-27T08:49:53.981Z,100344
2015-08-27T08:50:04.481Z,100347
2015-08-27T08:50:14.981Z,100334
2015-08-27T08:50:25.560Z,100339
2015-08-27T08:50:36.077Z,100336
2015-08-27T08:50:46.593Z,100341
2015-08-27T08:50:57.733Z,100344
2015-08-27T08:51:08.202Z,100341
2015-08-27T08:51:18.687Z,100344
2015-08-27T08:51:29.189Z,100336
2015-08-27T08:51:39.689Z,100339
2015-08-27T08:51:50.189Z,100339
2015-08-27T08:52:00.610Z,100339
2015-08-27T08:52:11.095Z,100347
2015-08-27T08:52:21.657Z,100339
2015-08-27T08:52:32.159Z,100347
2015-08-27T08:52:42.628Z,100336
2015-08-27T08:52:53.128Z,100339
2015-08-27T08:53:03.612Z,100341
2015-08-27T08:53:14.081Z,100341
2015-08-27T08:53:24.612Z,100341
2015-08-27T08:53:35.146Z,100339
2015-08-27T08:53:45.708Z,100334
2015-08-27T08:53:56.193Z,100341
2015-08-27T08:54:06.708Z,100336
2015-08-27T08:54:17.239Z,100341
2015-08-27T08:54:27.755Z,100344
2015-08-27T08:54:38.272Z,100339
2015-08-27T08:54:48.834Z,100347
2015-08-27T08:54:59.287Z,100344
2015-08-27T08:55:09.787Z,100344
2015-08-27T08:55:20.287Z,100347
2015-08-27T08:55:30.821Z,100353
2015-08-27T08:55:41.305Z,100353
2015-08-27T08:55:51.789Z,100344
2015-08-27T08:56:02.211Z,100353
2015-08-27T08:56:12.649Z,100341
2015-08-27T08:56:23.149Z,100339
2015-08-27T08:56:33.651Z,100347
2015-08-27T08:56:44.119Z,100339
2015-08-27T08:56:54.604Z,100359
2015-08-27T08:57:05.088Z,100339
2015-08-27T08:57:15.557Z,100342
2015-08-27T08:57:26.026Z,100344
2015-08-27T08:57:36.513Z,100344
2015-08-27T08:57:47.451Z,100350
2015-08-27T08:57:57.919Z,100342
2015-08-27T08:58:08.404Z,100347
2015-08-27T08:58:19.029Z,100353
2015-08-27T08:58:30.187Z,100347
2015-08-27T08:58:40.718Z,100350
2015-08-27T08:58:51.218Z,100353
2015-08-27T08:59:01.718Z,100347
2015-08-27T08:59:12.218Z,100347
2015-08-27T08:59:22.718Z,100356
2015-08-27T08:59:33.283Z,100350
2015-08-27T08:59:43.767Z,100359
2015-08-27T08:59:54.251Z,100350
2015-08-27T09:00:04.720Z,100350
2015-08-27T09:00:15.189Z,100342
2015-08-27T09:00:25.689Z,100347
2015-08-27T09:00:36.206Z,100353
2015-08-27T09:00:47.409Z,100359
2015-08-27T09:00:57.893Z,100353
2015-08-27T09:01:11.065Z,100344
2015-08-27T09:01:22.737Z,100359
2015-08-27T09:01:33.208Z,100350
2015-08-27T09:01:43.723Z,100353
2015-08-27T09:01:54.239Z,100344
2015-08-27T09:02:05.379Z,100350
2015-08-27T09:02:16.426Z,100353
2015-08-27T09:02:26.926Z,100347
2015-08-27T09:02:37.460Z,100356
2015-08-27T09:02:48.022Z,100350
2015-08-27T09:02:58.600Z,100365
2015-08-27T09:03:09.147Z,100359
2015-08-27T09:03:19.663Z,100350
2015-08-27T09:03:30.210Z,100359
2015-08-27T09:03:40.837Z,100350
2015-08-27T09:03:51.383Z,100344
2015-08-27T09:04:01.868Z,100365
2015-08-27T09:04:12.477Z,100356
2015-08-27T09:04:23.618Z,100359
2015-08-27T09:04:34.760Z,100359
2015-08-27T09:04:48.417Z,100359
2015-08-27T09:05:01.932Z,100356
2015-08-27T09:05:16.260Z,100353
2015-08-27T09:05:29.854Z,100356
2015-08-27T09:05:42.356Z,100356
2015-08-27T09:05:54.309Z,100356
2015-08-27T09:06:08.294Z,100353
2015-08-27T09:06:21.466Z,100342
2015-08-27T09:06:36.186Z,100350
2015-08-27T09:06:49.530Z,100342
2015-08-27T09:07:00.843Z,100359
2015-08-27T09:07:13.093Z,100356
2015-08-27T09:07:23.718Z,100353
2015-08-27T09:07:34.375Z,100350
2015-08-27T09:07:45.109Z,100353
2015-08-27T09:07:56.344Z,100353
2015-08-27T09:08:06.875Z,100356
2015-08-27T09:08:18.172Z,100356
2015-08-27T09:08:29.640Z,100344
2015-08-27T09:08:40.206Z,100344
2015-08-27T09:08:50.768Z,100356
2015-08-27T09:09:01.347Z,100350
2015-08-27T09:09:11.925Z,100334
2015-08-27T09:09:22.503Z,100331
2015-08-27T09:09:33.143Z,100336
2015-08-27T09:09:43.723Z,100347
2015-08-27T09:09:54.301Z,100347
2015-08-27T09:10:04.894Z,100347
2015-08-27T09:10:15.473Z,100331
2015-08-27T09:10:26.051Z,100342
2015-08-27T09:10:37.318Z,100347
2015-08-27T09:10:47.896Z,100334
2015-08-27T09:10:58.506Z,100342
2015-08-27T09:11:09.256Z,100339
2015-08-27T09:11:19.881Z,100331
2015-08-27T09:11:30.428Z,100325
2015-08-27T09:11:41.570Z,100334
2015-08-27T09:11:52.164Z,100350
2015-08-27T09:12:02.758Z,100331
2015-08-27T09:12:13.320Z,100334
2015-08-27T09:12:23.977Z,100331
2015-08-27T09:12:34.651Z,100331
2015-08-27T09:12:45.276Z,100339
2015-08-27T09:12:56.151Z,100331
2015-08-27T09:13:06.745Z,100342
2015-08-27T09:13:17.730Z,100356
2015-08-27T09:13:28.308Z,100347
2015-08-27T09:13:39.606Z,100344
2015-08-27T09:13:50.324Z,100342
2015-08-27T09:14:00.981Z,100339
2015-08-27T09:14:11.606Z,100344
2015-08-27T09:14:22.231Z,100350
2015-08-27T09:14:32.902Z,100356
2015-08-27T09:14:43.561Z,100345
2015-08-27T09:14:54.170Z,100339
2015-08-27T09:15:04.842Z,100356
2015-08-27T09:15:16.889Z,100359
2015-08-27T09:15:28.139Z,100345
2015-08-27T09:15:38.813Z,100342
2015-08-27T09:15:49.531Z,100350
2015-08-27T09:16:00.156Z,100347
2015-08-27T09:16:10.750Z,100347
2015-08-27T09:16:21.344Z,100359
2015-08-27T09:16:32.000Z,100347
2015-08-27T09:16:42.612Z,100350
2015-08-27T09:16:53.205Z,100339
2015-08-27T09:17:03.799Z,100350
2015-08-27T09:17:14.393Z,100350
2015-08-27T09:17:24.893Z,100345
2015-08-27T09:17:35.627Z,100339
2015-08-27T09:17:46.255Z,100353
2015-08-27T09:17:56.911Z,100359
2015-08-27T09:18:07.490Z,100347
2015-08-27T09:18:18.099Z,100339
2015-08-27T09:18:28.740Z,100342
2015-08-27T09:18:39.397Z,100359
2015-08-27T09:18:50.600Z,100350
2015-08-27T09:19:01.162Z,100362
2015-08-27T09:19:11.725Z,100359
2015-08-27T09:19:22.287Z,100359
2015-08-27T09:19:32.866Z,100347
2015-08-27T09:19:43.508Z,100350
2015-08-27T09:19:54.118Z,100356
2015-08-27T09:20:04.899Z,100362
2015-08-27T09:20:15.524Z,100353
2015-08-27T09:20:26.102Z,100362
2015-08-27T09:20:36.713Z,100359
2015-08-27T09:20:47.323Z,100362
2015-08-27T09:20:57.916Z,100356
2015-08-27T09:21:08.541Z,100368
2015-08-27T09:21:19.135Z,100362
2015-08-27T09:21:29.870Z,100362
2015-08-27T09:21:41.028Z,100362
2015-08-27T09:21:51.606Z,100362
2015-08-27T09:22:02.168Z,100368
2015-08-27T09:22:12.731Z,100356
2015-08-27T09:22:24.059Z,100359
2015-08-27T09:22:34.700Z,100359
2015-08-27T09:22:45.280Z,100362
2015-08-27T09:22:55.827Z,100362
2015-08-27T09:23:06.389Z,100353
2015-08-27T09:23:17.045Z,100353
2015-08-27T09:23:27.639Z,100353
2015-08-27T09:23:38.204Z,100350
2015-08-27T09:23:48.766Z,100350
2015-08-27T09:23:59.360Z,100359
2015-08-27T09:24:09.938Z,100345
2015-08-27T09:24:20.516Z,100368
2015-08-27T09:24:31.172Z,100353
2015-08-27T09:24:41.768Z,100353
2015-08-27T09:24:52.362Z,100359
2015-08-27T09:25:02.956Z,100350
2015-08-27T09:25:13.549Z,100356
2015-08-27T09:25:24.096Z,100347
2015-08-27T09:25:34.690Z,100350
2015-08-27T09:25:45.723Z,100362
2015-08-27T09:25:56.301Z,100353
2015-08-27T09:26:06.880Z,100347
2015-08-27T09:26:17.473Z,100353
2015-08-27T09:26:28.083Z,100350
2015-08-27T09:26:38.723Z,100345
2015-08-27T09:26:49.725Z,100347
2015-08-27T09:27:00.882Z,100347
2015-08-27T09:27:11.491Z,100350
2015-08-27T09:27:22.163Z,100347
2015-08-27T09:27:32.819Z,100331
2015-08-27T09:27:43.509Z,100339
2015-08-27T09:27:54.118Z,100342
2015-08-27T09:28:05.384Z,100348
2015-08-27T09:28:15.977Z,100336
2015-08-27T09:28:26.571Z,100339
2015-08-27T09:28:37.212Z,100345
2015-08-27T09:28:47.839Z,100350
2015-08-27T09:28:58.479Z,100345
2015-08-27T09:29:09.073Z,100342
2015-08-27T09:29:19.667Z,100339
2015-08-27T09:29:30.276Z,100334
2015-08-27T09:29:41.418Z,100342
2015-08-27T09:29:52.121Z,100339
2015-08-27T09:30:02.730Z,100334
2015-08-27T09:30:13.355Z,100339
2015-08-27T09:30:23.949Z,100336
2015-08-27T09:30:34.668Z,100345
2015-08-27T09:30:45.404Z,100342
2015-08-27T09:30:56.029Z,100342
2015-08-27T09:31:06.670Z,100348
2015-08-27T09:31:17.279Z,100342
2015-08-27T09:31:27.904Z,100345
2015-08-27T09:31:38.623Z,100348
2015-08-27T09:31:49.266Z,100345
2015-08-27T09:31:59.859Z,100342
2015-08-27T09:32:10.437Z,100342
2015-08-27T09:32:21.016Z,100345
2015-08-27T09:32:31.578Z,100353
2015-08-27T09:32:42.174Z,100353
2015-08-27T09:32:52.752Z,100348
2015-08-27T09:33:03.330Z,100350
2015-08-27T09:33:13.893Z,100345
2015-08-27T09:33:24.486Z,100348
2015-08-27T09:33:35.049Z,100350
2015-08-27T09:34:41.426Z,100350
2015-08-27T09:34:52.068Z,100353
2015-08-27T09:35:02.662Z,100345
2015-08-27T09:35:13.256Z,100350
2015-08-27T09:35:23.850Z,100356